createdAt,value
2022-11-30T00:01:54.686Z,5.79
2022-11-30T00:04:30.032Z,5.55
2022-11-30T00:07:02.232Z,5.88
2022-11-30T00:09:34.733Z,6.35
2022-11-30T00:12:07.373Z,5.95
2022-11-30T00:14:39.952Z,6.07
2022-11-30T00:17:12.133Z,5.89
2022-11-30T00:19:47.572Z,5.80
2022-11-30T00:22:19.632Z,6.02
2022-11-30T00:24:52.338Z,5.88
2022-11-30T00:27:24.356Z,5.77
2022-11-30T00:29:57.114Z,5.98
2022-11-30T00:32:30.411Z,6.11
2022-11-30T00:35:05.476Z,5.84
2022-11-30T00:37:38.499Z,5.44
2022-11-30T00:40:12.196Z,5.91
2022-11-30T00:42:44.469Z,5.99
2022-11-30T00:45:58.862Z,5.47
2022-11-30T00:48:31.371Z,5.65
2022-11-30T00:51:06.980Z,5.45
2022-11-30T00:53:39.292Z,5.47
2022-11-30T00:56:13.154Z,5.77
2022-11-30T00:58:45.319Z,5.86
2022-11-30T01:01:17.694Z,6.05
2022-11-30T01:03:49.933Z,6.06
2022-11-30T01:06:25.138Z,5.78
2022-11-30T01:08:57.461Z,5.84
2022-11-30T01:11:32.271Z,6.09
2022-11-30T01:14:04.772Z,6.11
2022-11-30T01:16:37.372Z,6.02
2022-11-30T01:19:09.252Z,6.04
2022-11-30T01:21:44.414Z,5.93
2022-11-30T01:24:16.617Z,5.83
2022-11-30T01:26:48.972Z,5.73
2022-11-30T01:29:21.172Z,5.62
2022-11-30T01:31:53.692Z,5.62
2022-11-30T01:34:25.735Z,5.85
2022-11-30T01:37:00.879Z,5.85
2022-11-30T01:39:33.051Z,5.69
2022-11-30T01:42:05.441Z,5.67
2022-11-30T01:44:54.358Z,5.38
2022-11-30T01:47:31.953Z,5.40
2022-11-30T01:50:09.444Z,5.68
2022-11-30T01:53:26.752Z,5.95
2022-11-30T01:55:59.012Z,6.12
2022-11-30T01:58:34.354Z,6.30
2022-11-30T02:01:06.730Z,5.83
2022-11-30T02:03:45.514Z,5.84
2022-11-30T02:06:18.733Z,5.79
2022-11-30T02:08:55.214Z,5.86
2022-11-30T02:11:30.553Z,5.98
2022-11-30T02:14:19.095Z,5.67
2022-11-30T02:16:59.673Z,5.84
2022-11-30T02:19:59.022Z,5.60
2022-11-30T02:22:46.956Z,5.68
2022-11-30T02:25:30.140Z,5.42
2022-11-30T02:28:27.474Z,5.40
2022-11-30T02:31:06.507Z,5.72
2022-11-30T02:33:40.511Z,5.52
2022-11-30T02:36:13.772Z,5.52
2022-11-30T02:38:46.196Z,5.48
2022-11-30T02:41:18.713Z,5.66
2022-11-30T02:43:51.275Z,5.56
2022-11-30T02:46:34.272Z,5.93
2022-11-30T02:49:13.531Z,6.01
2022-11-30T02:51:49.072Z,5.59
2022-11-30T02:54:22.076Z,5.43
2022-11-30T02:56:54.493Z,5.48
2022-11-30T02:59:26.673Z,5.40
2022-11-30T03:02:02.090Z,5.41
2022-11-30T03:04:34.233Z,5.49
2022-11-30T03:07:06.992Z,5.63
2022-11-30T03:09:38.933Z,5.40
2022-11-30T03:12:11.274Z,5.41
2022-11-30T03:14:43.077Z,5.24
2022-11-30T03:17:18.259Z,5.36
2022-11-30T03:19:50.094Z,5.32
2022-11-30T03:22:22.274Z,5.58
2022-11-30T03:24:54.034Z,5.87
2022-11-30T03:27:26.362Z,5.90
2022-11-30T03:29:58.592Z,5.69
2022-11-30T03:32:33.833Z,5.48
2022-11-30T03:35:05.452Z,5.73
2022-11-30T03:37:37.395Z,5.60
2022-11-30T03:40:10.673Z,5.17
2022-11-30T03:42:43.213Z,5.22
2022-11-30T03:45:15.152Z,5.33
2022-11-30T03:47:50.254Z,5.30
2022-11-30T03:50:22.031Z,5.48
2022-11-30T03:52:54.160Z,5.75
2022-11-30T03:55:25.893Z,5.62
2022-11-30T03:57:58.013Z,5.60
2022-11-30T04:00:29.814Z,5.44
2022-11-30T04:03:04.675Z,5.61
2022-11-30T04:05:36.513Z,5.54
2022-11-30T04:08:08.656Z,5.37
2022-11-30T04:10:40.614Z,5.27
2022-11-30T04:13:12.662Z,5.42
2022-11-30T04:15:44.400Z,5.59
2022-11-30T04:18:20.536Z,5.65
2022-11-30T04:20:54.412Z,5.64
2022-11-30T04:23:27.891Z,5.46
2022-11-30T04:26:00.352Z,5.53
2022-11-30T04:29:11.715Z,5.49
2022-11-30T04:31:58.334Z,5.62
2022-11-30T04:34:33.013Z,5.58
2022-11-30T04:37:04.672Z,5.37
2022-11-30T04:39:38.195Z,5.24
2022-11-30T04:42:10.973Z,5.30
2022-11-30T04:44:42.932Z,5.30
2022-11-30T04:47:14.655Z,5.24
2022-11-30T04:49:49.513Z,5.17
2022-11-30T04:52:21.372Z,5.14
2022-11-30T04:54:53.773Z,5.15
2022-11-30T04:57:25.891Z,5.49
2022-11-30T04:59:57.975Z,5.64
2022-11-30T05:02:30.031Z,5.24
2022-11-30T05:05:07.919Z,5.06
2022-11-30T05:07:40.991Z,4.95
2022-11-30T05:10:14.717Z,5.43
2022-11-30T05:12:46.934Z,5.45
2022-11-30T05:15:19.634Z,5.26
2022-11-30T05:17:51.701Z,5.68
2022-11-30T05:20:26.833Z,5.54
2022-11-30T05:22:58.934Z,5.43
2022-11-30T05:25:31.413Z,5.48
2022-11-30T05:28:03.351Z,5.40
2022-11-30T05:30:35.991Z,5.38
2022-11-30T05:33:08.095Z,5.51
2022-11-30T05:35:44.294Z,5.24
2022-11-30T05:38:16.318Z,5.22
2022-11-30T05:40:48.914Z,5.53
2022-11-30T05:43:21.832Z,5.56
2022-11-30T05:45:54.378Z,5.28
2022-11-30T05:48:26.413Z,5.55
2022-11-30T05:51:08.374Z,5.11
2022-11-30T05:56:41.923Z,5.20
2022-11-30T05:59:14.314Z,5.02
2022-11-30T06:01:47.140Z,5.25
2022-11-30T06:04:19.463Z,5.21
2022-11-30T06:06:56.023Z,5.24
2022-11-30T06:09:28.091Z,5.26
2022-11-30T06:12:00.810Z,5.18
2022-11-30T06:14:36.179Z,5.44
2022-11-30T06:17:08.994Z,5.52
2022-11-30T06:19:41.233Z,5.53
2022-11-30T06:22:16.393Z,5.30
2022-11-30T06:24:48.846Z,5.50
2022-11-30T06:27:21.664Z,5.50
2022-11-30T06:29:53.953Z,5.49
2022-11-30T06:32:26.453Z,5.58
2022-11-30T06:34:58.591Z,5.96
2022-11-30T06:37:36.774Z,5.71
2022-11-30T06:40:11.243Z,5.86
2022-11-30T06:42:43.753Z,5.76
2022-11-30T06:45:16.093Z,5.86
2022-11-30T06:50:39.511Z,6.03
2022-11-30T06:53:14.794Z,5.84
2022-11-30T06:55:46.817Z,5.82
2022-11-30T06:58:19.494Z,5.58
2022-11-30T07:00:51.756Z,5.63
2022-11-30T07:03:24.253Z,5.65
2022-11-30T07:05:56.292Z,5.77
2022-11-30T07:08:31.494Z,5.44
2022-11-30T07:11:03.974Z,5.41
2022-11-30T07:13:36.594Z,5.37
2022-11-30T07:16:10.847Z,5.83
2022-11-30T07:18:43.312Z,5.25
2022-11-30T07:21:15.476Z,5.18
2022-11-30T07:24:02.795Z,5.21
2022-11-30T07:26:35.117Z,5.29
2022-11-30T07:29:07.581Z,5.52
2022-11-30T07:31:39.921Z,5.67
2022-11-30T07:34:13.755Z,5.89
2022-11-30T07:36:46.241Z,5.49
2022-11-30T07:39:21.564Z,5.44
2022-11-30T07:41:53.873Z,5.36
2022-11-30T07:44:26.462Z,5.49
2022-11-30T07:46:58.671Z,5.94
2022-11-30T07:49:33.794Z,5.63
2022-11-30T07:52:06.432Z,5.54
2022-11-30T07:54:41.753Z,5.55
2022-11-30T07:57:17.314Z,5.56
2022-11-30T07:59:50.049Z,5.74
2022-11-30T08:02:22.557Z,5.62
2022-11-30T08:04:58.597Z,5.84
2022-11-30T08:07:30.718Z,5.61
2022-11-30T08:10:05.895Z,5.54
2022-11-30T08:12:38.212Z,5.70
2022-11-30T08:15:19.823Z,5.57
2022-11-30T08:17:55.536Z,5.60
2022-11-30T08:20:28.299Z,5.58
2022-11-30T08:23:02.687Z,5.89
2022-11-30T08:25:38.250Z,5.83
2022-11-30T08:28:10.651Z,5.91
2022-11-30T08:30:43.602Z,5.94
2022-11-30T08:33:16.163Z,5.89
2022-11-30T08:35:49.085Z,5.82
2022-11-30T08:38:21.846Z,5.90
2022-11-30T08:41:00.884Z,5.80
2022-11-30T08:43:33.770Z,5.86
2022-11-30T08:49:20.393Z,5.94
2022-11-30T08:54:51.455Z,5.88
2022-11-30T08:57:27.282Z,6.09
2022-11-30T08:59:59.571Z,6.19
2022-11-30T09:02:32.562Z,6.23
2022-11-30T09:05:05.207Z,6.35
2022-11-30T09:07:38.526Z,6.17
2022-11-30T09:10:23.172Z,6.09
2022-11-30T09:12:59.012Z,6.24
2022-11-30T09:15:31.687Z,6.44
2022-11-30T09:18:04.852Z,6.18
2022-11-30T09:20:37.812Z,6.11
2022-11-30T09:23:10.852Z,5.97
2022-11-30T09:25:44.371Z,5.89
2022-11-30T09:28:20.291Z,6.11
2022-11-30T09:30:53.049Z,6.55
2022-11-30T09:33:26.057Z,6.32
2022-11-30T09:36:00.131Z,6.44
2022-11-30T09:38:33.327Z,6.37
2022-11-30T09:41:10.324Z,6.31
2022-11-30T09:43:54.843Z,6.62
2022-11-30T09:46:32.644Z,6.78
2022-11-30T09:49:08.011Z,6.46
2022-11-30T09:51:48.884Z,6.45
2022-11-30T09:54:35.805Z,6.63
2022-11-30T09:57:22.368Z,6.70
2022-11-30T10:00:00.981Z,6.69
2022-11-30T10:02:35.928Z,6.89
2022-11-30T10:05:16.523Z,6.58
2022-11-30T10:08:05.282Z,6.89
2022-11-30T10:10:43.685Z,6.98
2022-11-30T10:13:33.617Z,7.17
2022-11-30T10:16:21.244Z,6.85
2022-11-30T10:19:01.404Z,6.98
2022-11-30T10:21:51.284Z,7.46
2022-11-30T10:24:39.124Z,7.59
2022-11-30T10:27:20.767Z,7.27
2022-11-30T10:29:53.619Z,7.01
2022-11-30T10:32:39.303Z,7.03
2022-11-30T10:35:23.571Z,6.86
2022-11-30T10:37:59.539Z,7.06
2022-11-30T10:40:40.891Z,6.92
2022-11-30T10:43:23.054Z,6.90
2022-11-30T10:45:55.843Z,7.06
2022-11-30T10:48:44.385Z,7.08
2022-11-30T10:51:19.930Z,6.90
2022-11-30T10:53:52.039Z,7.20
2022-11-30T10:56:29.568Z,7.69
2022-11-30T10:59:07.395Z,7.01
2022-11-30T11:01:46.340Z,7.73
2022-11-30T11:04:24.001Z,7.44
2022-11-30T11:07:00.830Z,6.77
2022-11-30T11:09:42.883Z,7.13
2022-11-30T11:12:21.097Z,7.40
2022-11-30T11:15:12.390Z,7.60
2022-11-30T11:17:43.985Z,7.71
2022-11-30T11:20:39.689Z,7.32
2022-11-30T11:23:29.257Z,7.08
2022-11-30T11:26:03.580Z,7.51
2022-11-30T11:28:37.830Z,7.47
2022-11-30T11:31:22.256Z,7.58
2022-11-30T11:33:57.628Z,7.36
2022-11-30T11:36:36.981Z,7.24
2022-11-30T11:39:29.815Z,7.48
2022-11-30T11:42:05.642Z,7.58
2022-11-30T11:44:37.505Z,7.60
2022-11-30T11:47:12.329Z,7.42
2022-11-30T11:49:43.970Z,7.34
2022-11-30T11:52:23.159Z,7.72
2022-11-30T11:55:00.610Z,7.77
2022-11-30T11:57:43.671Z,8.03
2022-11-30T12:00:21.438Z,7.81
2022-11-30T12:03:03.279Z,7.19
2022-11-30T12:05:45.119Z,7.24
2022-11-30T12:08:34.143Z,7.40
2022-11-30T12:11:12.233Z,7.15
2022-11-30T12:13:46.407Z,7.36
2022-11-30T12:16:38.225Z,7.06
2022-11-30T12:19:18.753Z,7.07
2022-11-30T12:22:11.993Z,6.81
2022-11-30T12:25:16.781Z,6.95
2022-11-30T12:28:02.369Z,7.00
2022-11-30T12:30:50.721Z,6.71
2022-11-30T12:33:43.297Z,7.24
2022-11-30T12:36:23.575Z,7.21
2022-11-30T12:39:01.949Z,7.29
2022-11-30T12:41:45.265Z,6.51
2022-11-30T12:44:38.525Z,6.73
2022-11-30T12:47:29.154Z,7.15
2022-11-30T12:50:22.219Z,6.83
2022-11-30T12:53:03.910Z,6.60
2022-11-30T12:55:43.540Z,6.53
2022-11-30T12:58:25.818Z,6.76
2022-11-30T13:01:13.670Z,6.86
2022-11-30T13:03:51.655Z,6.81
2022-11-30T13:06:27.790Z,7.13
2022-11-30T13:09:05.642Z,6.91
2022-11-30T13:11:41.383Z,7.10
2022-11-30T13:14:20.275Z,7.20
2022-11-30T13:16:54.046Z,6.89
2022-11-30T13:19:44.296Z,6.96
2022-11-30T13:22:25.739Z,6.49
2022-11-30T13:25:06.205Z,6.24
2022-11-30T13:27:47.496Z,6.22
2022-11-30T13:30:35.224Z,6.64
2022-11-30T13:33:39.096Z,6.23
2022-11-30T13:36:29.037Z,6.14
2022-11-30T13:39:28.210Z,5.80
2022-11-30T13:42:34.388Z,6.21
2022-11-30T13:45:38.937Z,5.70
2022-11-30T13:48:33.908Z,5.31
2022-11-30T13:51:05.665Z,5.56
2022-11-30T13:53:39.429Z,5.27
2022-11-30T13:56:37.081Z,5.79
2022-11-30T13:59:41.199Z,4.83
2022-11-30T14:02:45.124Z,4.57
2022-11-30T16:28:03.346Z,2.53
2022-11-30T16:30:36.948Z,2.97
2022-11-30T16:33:09.873Z,3.27
2022-11-30T16:35:45.192Z,3.48
2022-11-30T16:38:37.727Z,3.11
2022-11-30T16:41:18.054Z,3.26
2022-11-30T16:43:54.808Z,2.80
2022-11-30T16:46:29.030Z,2.88
2022-11-30T16:49:00.610Z,2.87
2022-11-30T16:51:36.409Z,3.28
2022-11-30T16:54:08.335Z,3.53
2022-11-30T16:56:40.586Z,3.26
2022-11-30T16:59:17.039Z,3.55
2022-11-30T17:01:53.240Z,3.27
2022-11-30T17:04:29.907Z,3.32
2022-11-30T17:07:03.025Z,3.16
2022-11-30T17:09:35.186Z,3.04
2022-11-30T17:12:07.652Z,3.35
2022-11-30T17:14:42.055Z,2.94
2022-11-30T17:23:40.508Z,3.19
2022-11-30T17:26:12.857Z,3.04
2022-11-30T17:28:45.629Z,3.02
2022-11-30T17:31:20.809Z,2.90
2022-11-30T17:33:53.695Z,2.89
2022-11-30T17:36:27.072Z,3.36
2022-11-30T17:38:59.769Z,3.41
2022-11-30T17:41:32.178Z,3.34
2022-11-30T17:44:05.197Z,3.59
2022-11-30T17:46:45.333Z,3.52
2022-11-30T17:49:20.871Z,3.02
2022-11-30T17:51:53.228Z,3.55
2022-11-30T17:54:25.757Z,3.22
2022-11-30T17:56:57.385Z,3.21
2022-11-30T17:59:29.408Z,3.42
2022-11-30T18:02:03.443Z,3.72
2022-11-30T18:04:35.516Z,3.35
2022-11-30T18:07:07.218Z,3.36
2022-11-30T18:09:42.542Z,3.52
2022-11-30T18:12:14.844Z,3.44
2022-11-30T18:14:47.376Z,3.15
2022-11-30T18:17:21.922Z,3.24
2022-11-30T18:19:55.073Z,3.05
2022-11-30T18:22:28.623Z,3.17
2022-11-30T18:25:00.492Z,3.29
2022-11-30T18:27:32.318Z,3.04
2022-11-30T18:30:09.848Z,2.73
2022-11-30T18:32:44.747Z,2.61
2022-11-30T18:35:16.869Z,2.92
2022-11-30T18:37:48.818Z,3.01
2022-11-30T18:40:20.872Z,3.34
2022-11-30T18:42:52.392Z,3.21
2022-11-30T18:45:24.435Z,3.06
2022-11-30T18:48:00.749Z,3.20
2022-11-30T18:50:33.079Z,3.48
2022-11-30T18:53:04.830Z,3.38
2022-11-30T18:55:37.864Z,3.54
2022-11-30T18:58:18.739Z,3.40
2022-11-30T19:01:11.090Z,3.32
2022-11-30T19:03:45.698Z,3.10
2022-11-30T19:06:17.659Z,3.24
2022-11-30T19:08:50.205Z,3.06
2022-11-30T19:11:22.398Z,2.94
2022-11-30T19:13:57.505Z,3.16
2022-11-30T19:16:31.390Z,3.09
2022-11-30T19:19:07.566Z,3.53
2022-11-30T19:21:39.855Z,3.32
2022-11-30T19:24:12.688Z,3.31
2022-11-30T19:26:44.619Z,3.39
2022-11-30T19:29:17.062Z,3.55
2022-11-30T19:31:49.030Z,3.34
2022-11-30T19:34:23.267Z,3.31
2022-11-30T19:36:55.461Z,3.02
2022-11-30T19:39:27.109Z,2.50
2022-11-30T19:41:59.130Z,2.81
2022-11-30T19:44:30.612Z,2.53
2022-11-30T19:47:02.745Z,2.28
2022-11-30T19:49:37.160Z,2.30
2022-11-30T19:52:09.234Z,2.72
2022-11-30T19:54:40.458Z,2.76
2022-11-30T19:57:12.060Z,2.27
2022-11-30T19:59:43.977Z,2.49
2022-11-30T20:02:15.659Z,2.69
2022-11-30T20:04:49.702Z,2.58
2022-11-30T20:07:21.436Z,2.41
2022-11-30T20:09:52.954Z,2.46
2022-11-30T20:12:24.894Z,2.48
2022-11-30T20:14:56.150Z,2.49
2022-11-30T20:17:30.134Z,2.43
2022-11-30T20:20:04.357Z,2.58
2022-11-30T20:22:36.584Z,2.65
2022-11-30T20:25:08.925Z,2.68
2022-11-30T20:27:40.588Z,2.52
2022-11-30T20:30:12.765Z,2.43
2022-11-30T20:32:44.367Z,2.31
2022-11-30T20:35:18.918Z,2.55
2022-11-30T20:38:02.835Z,2.75
2022-11-30T20:40:34.892Z,2.68
2022-11-30T20:43:07.292Z,2.76
2022-11-30T20:45:39.573Z,2.87
2022-11-30T20:48:11.679Z,2.90
2022-11-30T20:51:00.984Z,2.96
2022-11-30T20:53:38.792Z,2.77
2022-11-30T20:56:11.632Z,2.70
2022-11-30T20:58:44.173Z,2.74
2022-11-30T21:01:18.413Z,2.98
2022-11-30T21:03:51.255Z,2.73
2022-11-30T21:06:28.280Z,2.64
2022-11-30T21:09:00.794Z,2.65
2022-11-30T21:11:33.580Z,2.92
2022-11-30T21:14:06.024Z,3.12
2022-11-30T21:16:37.464Z,3.05
2022-11-30T21:19:12.386Z,2.98
2022-11-30T21:21:46.728Z,2.77
2022-11-30T21:24:18.512Z,2.86
2022-11-30T21:26:50.137Z,2.77
2022-11-30T21:29:22.049Z,3.26
2022-11-30T21:31:53.351Z,3.53
2022-11-30T21:34:25.923Z,3.18
2022-11-30T21:37:00.102Z,3.11
2022-11-30T21:39:32.972Z,2.99
2022-11-30T21:42:04.120Z,2.98
2022-11-30T21:44:36.002Z,2.80
2022-11-30T21:47:10.578Z,2.83
2022-11-30T21:49:42.464Z,2.91
2022-11-30T21:52:16.990Z,2.77
2022-11-30T21:54:53.572Z,2.48
2022-11-30T21:57:25.360Z,2.74
2022-11-30T21:59:58.744Z,2.56
2022-11-30T22:02:31.141Z,2.93
2022-11-30T22:05:03.108Z,3.27
2022-11-30T22:07:37.449Z,3.05
2022-11-30T22:10:10.947Z,3.19
2022-11-30T22:12:45.176Z,2.80
2022-11-30T22:15:19.217Z,2.59
2022-11-30T22:17:51.541Z,2.60
2022-11-30T22:20:27.349Z,2.60
2022-11-30T22:23:03.399Z,2.64
2022-11-30T22:25:35.630Z,2.53
2022-11-30T22:28:07.570Z,2.40
2022-11-30T22:30:40.019Z,2.81
2022-11-30T22:33:12.238Z,2.68
2022-11-30T22:35:46.420Z,3.13
2022-11-30T22:38:20.304Z,3.19
2022-11-30T22:40:52.017Z,3.10
2022-11-30T22:43:23.100Z,2.76
2022-11-30T22:45:56.455Z,2.69
2022-11-30T22:48:27.628Z,2.84
2022-11-30T22:50:59.004Z,2.29
2022-11-30T22:53:33.226Z,2.79
2022-11-30T22:56:06.413Z,2.72
2022-11-30T22:58:38.314Z,2.88
2022-11-30T23:01:16.948Z,2.81
2022-11-30T23:03:51.848Z,2.59
2022-11-30T23:06:25.836Z,2.79
2022-11-30T23:09:01.460Z,2.88
2022-11-30T23:11:34.125Z,2.62
2022-11-30T23:14:08.442Z,2.83
2022-11-30T23:16:41.156Z,2.66
2022-11-30T23:19:16.638Z,2.45
2022-11-30T23:21:50.223Z,2.82
2022-11-30T23:24:25.164Z,2.90
2022-11-30T23:26:57.258Z,2.93
2022-11-30T23:29:28.610Z,3.15
2022-11-30T23:32:00.278Z,2.97
2022-11-30T23:34:31.807Z,2.82
2022-11-30T23:37:05.087Z,2.93
2022-11-30T23:39:40.210Z,3.06
2022-11-30T23:42:12.062Z,2.77
2022-11-30T23:44:43.561Z,2.62
2022-11-30T23:47:18.549Z,2.49
2022-11-30T23:49:50.847Z,2.63
2022-11-30T23:52:23.621Z,2.58
2022-11-30T23:54:57.483Z,3.10
2022-11-30T23:57:30.096Z,2.98
